PWSweather.com
Personal Weather Stations
Station Observations
KMIEASTT1
Tawas Bay, East Tawas, MI 48730

Tawas BayEast Tawas, MI 48730

Lat: 44.28, Lon: -83.48

Elevation: 600

Station Type: Davis VantagePro

http://www.tawasbayweather.com

Latest ConditionsUpdated 2:15:09 PM EST Tuesday, Nov 12, 2019
Currently Today's Max Today's Min Today's Average
Temperature 25.0°F-3.9°C 30.5°F-0.8°C 9.7°F-12.4°C 18.8°F-7.3°C
Dew Point 9.9°F-12.3°C 15.5°F-9.2°C 6.5°F-14.2°C 10.8°F-11.8°C
Winds 4.0 mph NW6.4 kmh NW 20.0 mph -32.2 kmh - - 4.6 mph 7.4 kmh
Wind Gusts 13.0 mph20.9 kmh 20.0 mph32.2 kmh - -
Humidity 52% 87% 43% 73%
Pressure 30.34 in1027.4 mb 30.36 in1028.1 mb 30.25 in1024.4 mb -
Hour Temp Dew Point Humidity Winds Wind Gusts Pressure Precip Precip Rate Daily Precip Total
02:15 PM 25.0°F-3.9°C 9.9°F-12.3°C 52% 4.0 mph NW6.4 kmh NW 13.0 mph20.9 kmh 30.34 in1027.4 mb 0.00 in0.0 mm 0.00 in0.0 mm 0.00 in0.0 mm
02:00 PM 28.4°F-2.0°C 8.8°F-12.9°C 43% 3.0 mph NNW4.8 kmh NNW 9.0 mph14.5 kmh 30.34 in1027.4 mb 0.00 in0.0 mm 0.00 in0.0 mm 0.00 in0.0 mm
01:45 PM 30.5°F-0.8°C 11.2°F-11.6°C 44% 8.0 mph NW12.9 kmh NW 8.0 mph12.9 kmh 30.34 in1027.4 mb 0.00 in0.0 mm 0.00 in0.0 mm 0.00 in0.0 mm
01:30 PM 28.3°F-2.1°C 10.2°F-12.1°C 46% 8.0 mph N12.9 kmh N 8.0 mph12.9 kmh 30.34 in1027.4 mb 0.00 in0.0 mm 0.00 in0.0 mm 0.00 in0.0 mm
01:15 PM 29.0°F-1.7°C 9.8°F-12.3°C 44% 4.0 mph NNW6.4 kmh NNW 9.0 mph14.5 kmh 30.34 in1027.4 mb 0.00 in0.0 mm 0.00 in0.0 mm 0.00 in0.0 mm
01:00 PM 27.7°F-2.4°C 9.6°F-12.4°C 46% 5.0 mph NNW8.0 kmh NNW 9.0 mph14.5 kmh 30.34 in1027.4 mb 0.00 in0.0 mm 0.00 in0.0 mm 0.00 in0.0 mm
12:45 PM 28.2°F-2.1°C 10.1°F-12.2°C 46% 3.0 mph NNE4.8 kmh NNE 11.0 mph17.7 kmh 30.34 in1027.4 mb 0.00 in0.0 mm 0.00 in0.0 mm 0.00 in0.0 mm
12:30 PM 29.0°F-1.7°C 9.3°F-12.6°C 43% 5.0 mph NNW8.0 kmh NNW 8.0 mph12.9 kmh 30.34 in1027.4 mb 0.00 in0.0 mm 0.00 in0.0 mm 0.00 in0.0 mm
12:15 PM 28.9°F-1.7°C 11.2°F-11.6°C 47% 2.0 mph NNW3.2 kmh NNW 9.0 mph14.5 kmh 30.35 in1027.8 mb 0.00 in0.0 mm 0.00 in0.0 mm 0.00 in0.0 mm
12:00 PM 27.5°F-2.5°C 9.9°F-12.3°C 47% 4.0 mph N6.4 kmh N 9.0 mph14.5 kmh 30.35 in1027.8 mb 0.00 in0.0 mm 0.00 in0.0 mm 0.00 in0.0 mm
11:45 AM 27.2°F-2.7°C 11.9°F-11.2°C 52% 4.0 mph NW6.4 kmh NW 8.0 mph12.9 kmh 30.36 in1028.1 mb 0.00 in0.0 mm 0.00 in0.0 mm 0.00 in0.0 mm
11:30 AM 26.7°F-2.9°C 12.3°F-10.9°C 54% 3.0 mph NNW4.8 kmh NNW 8.0 mph12.9 kmh 30.36 in1028.1 mb 0.00 in0.0 mm 0.00 in0.0 mm 0.00 in0.0 mm
11:15 AM 26.8°F-2.9°C 12.8°F-10.7°C 55% 4.0 mph NW6.4 kmh NW 8.0 mph12.9 kmh 30.36 in1028.1 mb 0.00 in0.0 mm 0.00 in0.0 mm 0.00 in0.0 mm
11:00 AM 26.2°F-3.2°C 12.3°F-10.9°C 55% 4.0 mph N6.4 kmh N 7.0 mph11.3 kmh 30.36 in1028.1 mb 0.00 in0.0 mm 0.00 in0.0 mm 0.00 in0.0 mm
10:45 AM 26.7°F-2.9°C 13.1°F-10.5°C 56% 5.0 mph NNW8.0 kmh NNW 10.0 mph16.1 kmh 30.36 in1028.1 mb 0.00 in0.0 mm 0.00 in0.0 mm 0.00 in0.0 mm
10:30 AM 26.1°F-3.3°C 13.8°F-10.1°C 59% 5.0 mph N8.0 kmh N 10.0 mph16.1 kmh 30.36 in1028.1 mb 0.00 in0.0 mm 0.00 in0.0 mm 0.00 in0.0 mm
10:15 AM 26.0°F-3.3°C 13.7°F-10.2°C 59% 6.0 mph NW9.7 kmh NW 8.0 mph12.9 kmh 30.36 in1028.1 mb 0.00 in0.0 mm 0.00 in0.0 mm 0.00 in0.0 mm
10:00 AM 26.3°F-3.2°C 13.9°F-10.1°C 59% 2.0 mph N3.2 kmh N 8.0 mph12.9 kmh 30.36 in1028.1 mb 0.00 in0.0 mm 0.00 in0.0 mm 0.00 in0.0 mm
09:45 AM 25.7°F-3.5°C 13.8°F-10.1°C 60% 6.0 mph NNW9.7 kmh NNW 6.0 mph9.7 kmh 30.36 in1028.1 mb 0.00 in0.0 mm 0.00 in0.0 mm 0.00 in0.0 mm
09:30 AM 24.6°F-4.1°C 13.8°F-10.1°C 63% 3.0 mph NNW4.8 kmh NNW 7.0 mph11.3 kmh 30.35 in1027.8 mb 0.00 in0.0 mm 0.00 in0.0 mm 0.00 in0.0 mm
09:15 AM 17.5°F-8.1°C 12.7°F-10.7°C 81% 20.0 mph SE32.2 kmh SE 20.0 mph32.2 kmh 30.35 in1027.8 mb 0.00 in0.0 mm 0.00 in0.0 mm 0.00 in0.0 mm
09:00 AM 17.0°F-8.3°C 11.6°F-11.3°C 79% 15.0 mph SE24.1 kmh SE 20.0 mph32.2 kmh 30.35 in1027.8 mb 0.00 in0.0 mm 0.00 in0.0 mm 0.00 in0.0 mm
08:45 AM 16.7°F-8.5°C 11.6°F-11.3°C 80% 17.0 mph SE27.4 kmh SE 19.0 mph30.6 kmh 30.34 in1027.4 mb 0.00 in0.0 mm 0.00 in0.0 mm 0.00 in0.0 mm
08:30 AM 16.0°F-8.9°C 11.5°F-11.4°C 82% 18.0 mph SE29.0 kmh SE 20.0 mph32.2 kmh 30.34 in1027.4 mb 0.00 in0.0 mm 0.00 in0.0 mm 0.00 in0.0 mm
08:15 AM 15.5°F-9.2°C 11.3°F-11.5°C 83% 16.0 mph SE25.7 kmh SE 19.0 mph30.6 kmh 30.33 in1027.1 mb 0.00 in0.0 mm 0.00 in0.0 mm 0.00 in0.0 mm
08:00 AM 13.5°F-10.3°C 9.6°F-12.4°C 84% 3.0 mph N4.8 kmh N 8.0 mph12.9 kmh 30.33 in1027.1 mb 0.00 in0.0 mm 0.00 in0.0 mm 0.00 in0.0 mm
07:45 AM 10.1°F-12.2°C 7.0°F-13.9°C 87% 2.0 mph NNW3.2 kmh NNW 6.0 mph9.7 kmh 30.32 in1026.8 mb 0.00 in0.0 mm 0.00 in0.0 mm 0.00 in0.0 mm
07:30 AM 9.8°F-12.3°C 6.7°F-14.1°C 87% 4.0 mph NNW6.4 kmh NNW 5.0 mph8.0 kmh 30.32 in1026.8 mb 0.00 in0.0 mm 0.00 in0.0 mm 0.00 in0.0 mm
07:15 AM 9.7°F-12.4°C 6.6°F-14.1°C 87% 3.0 mph N4.8 kmh N 5.0 mph8.0 kmh 30.31 in1026.4 mb 0.00 in0.0 mm 0.00 in0.0 mm 0.00 in0.0 mm
07:00 AM 9.8°F-12.3°C 6.5°F-14.2°C 86% 1.0 mph NNW1.6 kmh NNW 4.0 mph6.4 kmh 30.30 in1026.1 mb 0.00 in0.0 mm 0.00 in0.0 mm 0.00 in0.0 mm
06:45 AM 9.9°F-12.3°C 6.6°F-14.1°C 86% 2.0 mph N3.2 kmh N 6.0 mph9.7 kmh 30.30 in1026.1 mb 0.00 in0.0 mm 0.00 in0.0 mm 0.00 in0.0 mm
06:30 AM 10.1°F-12.2°C 7.0°F-13.9°C 87% 4.0 mph N6.4 kmh N 5.0 mph8.0 kmh 30.30 in1026.1 mb 0.00 in0.0 mm 0.00 in0.0 mm 0.00 in0.0 mm
06:15 AM 10.2°F-12.1°C 6.9°F-13.9°C 86% 3.0 mph NNE4.8 kmh NNE 5.0 mph8.0 kmh 30.29 in1025.7 mb 0.00 in0.0 mm 0.00 in0.0 mm 0.00 in0.0 mm
06:00 AM 10.5°F-11.9°C 7.2°F-13.8°C 86% 3.0 mph NNW4.8 kmh NNW 5.0 mph8.0 kmh 30.29 in1025.7 mb 0.00 in0.0 mm 0.00 in0.0 mm 0.00 in0.0 mm
05:45 AM 10.8°F-11.8°C 7.4°F-13.7°C 86% 2.0 mph N3.2 kmh N 4.0 mph6.4 kmh 30.29 in1025.7 mb 0.00 in0.0 mm 0.00 in0.0 mm 0.00 in0.0 mm
05:30 AM 11.2°F-11.6°C 7.6°F-13.6°C 85% 2.0 mph NNW3.2 kmh NNW 5.0 mph8.0 kmh 30.29 in1025.7 mb 0.00 in0.0 mm 0.00 in0.0 mm 0.00 in0.0 mm
05:15 AM 11.8°F-11.2°C 7.9°F-13.4°C 84% 3.0 mph NNW4.8 kmh NNW 4.0 mph6.4 kmh 30.28 in1025.4 mb 0.00 in0.0 mm 0.00 in0.0 mm 0.00 in0.0 mm
05:00 AM 12.5°F-10.8°C 8.3°F-13.2°C 83% 4.0 mph NNW6.4 kmh NNW 4.0 mph6.4 kmh 30.28 in1025.4 mb 0.00 in0.0 mm 0.00 in0.0 mm 0.00 in0.0 mm
04:45 AM 12.8°F-10.7°C 8.9°F-12.8°C 84% 2.0 mph NNW3.2 kmh NNW 4.0 mph6.4 kmh 30.28 in1025.4 mb 0.00 in0.0 mm 0.00 in0.0 mm 0.00 in0.0 mm
04:30 AM 13.1°F-10.5°C 8.7°F-12.9°C 82% 2.0 mph N3.2 kmh N 5.0 mph8.0 kmh 30.27 in1025.1 mb 0.00 in0.0 mm 0.00 in0.0 mm 0.00 in0.0 mm
04:15 AM 13.5°F-10.3°C 9.0°F-12.8°C 82% 4.0 mph N6.4 kmh N 5.0 mph8.0 kmh 30.26 in1024.7 mb 0.00 in0.0 mm 0.00 in0.0 mm 0.00 in0.0 mm
04:00 AM 13.8°F-10.1°C 9.6°F-12.4°C 83% 8.0 mph N12.9 kmh N 8.0 mph12.9 kmh 30.26 in1024.7 mb 0.00 in0.0 mm 0.00 in0.0 mm 0.00 in0.0 mm
03:45 AM 14.1°F-9.9°C 9.9°F-12.3°C 83% 2.0 mph NNW3.2 kmh NNW 5.0 mph8.0 kmh 30.26 in1024.7 mb 0.00 in0.0 mm 0.00 in0.0 mm 0.00 in0.0 mm
03:30 AM 14.3°F-9.8°C 10.4°F-12.0°C 84% 2.0 mph N3.2 kmh N 10.0 mph16.1 kmh 30.26 in1024.7 mb 0.00 in0.0 mm 0.00 in0.0 mm 0.00 in0.0 mm
03:15 AM 14.7°F-9.6°C 10.5°F-11.9°C 83% 3.0 mph NNW4.8 kmh NNW 4.0 mph6.4 kmh 30.26 in1024.7 mb 0.00 in0.0 mm 0.00 in0.0 mm 0.00 in0.0 mm
03:00 AM 15.2°F-9.3°C 11.0°F-11.7°C 83% 3.0 mph N4.8 kmh N 5.0 mph8.0 kmh 30.26 in1024.7 mb 0.00 in0.0 mm 0.00 in0.0 mm 0.00 in0.0 mm
02:45 AM 15.9°F-8.9°C 11.4°F-11.4°C 82% 3.0 mph N4.8 kmh N 5.0 mph8.0 kmh 30.26 in1024.7 mb 0.00 in0.0 mm 0.00 in0.0 mm 0.00 in0.0 mm
02:30 AM 16.4°F-8.7°C 11.9°F-11.2°C 82% 5.0 mph N8.0 kmh N 6.0 mph9.7 kmh 30.26 in1024.7 mb 0.00 in0.0 mm 0.00 in0.0 mm 0.00 in0.0 mm
02:15 AM 16.8°F-8.4°C 12.8°F-10.7°C 84% 4.0 mph NNW6.4 kmh NNW 5.0 mph8.0 kmh 30.26 in1024.7 mb 0.00 in0.0 mm 0.00 in0.0 mm 0.00 in0.0 mm
02:00 AM 17.0°F-8.3°C 13.0°F-10.6°C 84% 2.0 mph N3.2 kmh N 5.0 mph8.0 kmh 30.26 in1024.7 mb 0.00 in0.0 mm 0.00 in0.0 mm 0.00 in0.0 mm
01:45 AM 17.2°F-8.2°C 13.2°F-10.4°C 84% 2.0 mph NNW3.2 kmh NNW 6.0 mph9.7 kmh 30.26 in1024.7 mb 0.00 in0.0 mm 0.00 in0.0 mm 0.00 in0.0 mm
01:30 AM 17.5°F-8.1°C 13.8°F-10.1°C 85% 1.0 mph N1.6 kmh N 8.0 mph12.9 kmh 30.26 in1024.7 mb 0.00 in0.0 mm 0.00 in0.0 mm 0.00 in0.0 mm
01:15 AM 17.8°F-7.9°C 14.1°F-9.9°C 85% 2.0 mph N3.2 kmh N 8.0 mph12.9 kmh 30.26 in1024.7 mb 0.00 in0.0 mm 0.00 in0.0 mm 0.00 in0.0 mm
01:00 AM 18.1°F-7.7°C 14.4°F-9.8°C 85% 5.0 mph N8.0 kmh N 6.0 mph9.7 kmh 30.26 in1024.7 mb 0.00 in0.0 mm 0.00 in0.0 mm 0.00 in0.0 mm
12:45 AM 18.4°F-7.6°C 14.7°F-9.6°C 85% 1.0 mph NNW1.6 kmh NNW 6.0 mph9.7 kmh 30.25 in1024.4 mb 0.00 in0.0 mm 0.00 in0.0 mm 0.00 in0.0 mm
12:30 AM 18.7°F-7.4°C 15.2°F-9.3°C 86% 3.0 mph NNW4.8 kmh NNW 6.0 mph9.7 kmh 30.25 in1024.4 mb 0.00 in0.0 mm 0.00 in0.0 mm 0.00 in0.0 mm
12:15 AM 18.8°F-7.3°C 15.3°F-9.3°C 86% 1.0 mph N1.6 kmh N 5.0 mph8.0 kmh 30.25 in1024.4 mb 0.00 in0.0 mm 0.00 in0.0 mm 0.00 in0.0 mm
12:00 AM 19.0°F-7.2°C 15.5°F-9.2°C 86% 3.0 mph N4.8 kmh N 7.0 mph11.3 kmh 30.25 in1024.4 mb 0.00 in0.0 mm 0.00 in0.0 mm 0.00 in0.0 mm